createdAt,value
2019-03-30T00:02:18.385Z,5.30
2019-03-30T00:04:58.783Z,5.30
2019-03-30T00:07:39.756Z,5.20
2019-03-30T00:10:20.687Z,5.10
2019-03-30T00:13:01.552Z,5.10
2019-03-30T00:15:42.268Z,5.10
2019-03-30T00:18:23.279Z,5.00
2019-03-30T00:21:03.942Z,4.90
2019-03-30T00:23:45.013Z,4.80
2019-03-30T00:26:25.800Z,4.80
2019-03-30T00:29:06.342Z,4.70
2019-03-30T00:31:47.800Z,4.70
2019-03-30T00:34:28.786Z,4.60
2019-03-30T00:37:09.860Z,4.70
2019-03-30T00:39:50.501Z,4.80
2019-03-30T00:42:31.107Z,4.80
2019-03-30T00:45:11.826Z,4.60
2019-03-30T00:47:52.578Z,4.70
2019-03-30T00:50:33.536Z,4.70
2019-03-30T00:53:14.053Z,4.70
2019-03-30T00:55:55.112Z,4.60
2019-03-30T00:58:35.884Z,4.50
2019-03-30T01:01:16.699Z,4.50
2019-03-30T01:03:57.723Z,4.50
2019-03-30T01:06:38.613Z,4.50
2019-03-30T01:09:19.501Z,4.50
2019-03-30T01:11:59.854Z,4.40
2019-03-30T01:14:40.756Z,4.40
2019-03-30T01:17:21.680Z,4.30
2019-03-30T01:20:03.797Z,4.30
2019-03-30T01:22:44.817Z,4.30
2019-03-30T01:25:25.333Z,4.30
2019-03-30T01:28:06.088Z,4.20
2019-03-30T01:30:47.167Z,4.10
2019-03-30T01:33:27.871Z,4.00
2019-03-30T01:36:09.055Z,4.10
2019-03-30T01:38:49.877Z,4.10
2019-03-30T01:41:30.956Z,4.00
2019-03-30T01:44:11.252Z,4.00
2019-03-30T01:46:52.165Z,3.90
2019-03-30T01:49:32.634Z,3.90
2019-03-30T01:52:13.326Z,3.80
2019-03-30T01:54:54.552Z,3.80
2019-03-30T01:57:35.005Z,3.70
2019-03-30T02:00:16.057Z,3.60
2019-03-30T02:02:56.508Z,3.60
2019-03-30T02:05:37.291Z,3.50
2019-03-30T02:08:06.931Z,3.40
2019-03-30T02:10:41.332Z,3.40
2019-03-30T02:13:10.657Z,3.40
2019-03-30T02:15:40.111Z,3.40
2019-03-30T02:18:09.530Z,3.40
2019-03-30T02:20:40.940Z,3.30
2019-03-30T02:23:10.899Z,3.30
2019-03-30T02:25:40.669Z,3.40
2019-03-30T02:28:10.446Z,3.50
2019-03-30T02:30:39.915Z,3.40
2019-03-30T02:33:09.371Z,3.40
2019-03-30T02:35:39.074Z,3.60
2019-03-30T02:38:08.540Z,3.70
2019-03-30T02:40:37.933Z,3.60
2019-03-30T02:43:07.201Z,3.50
2019-03-30T02:46:19.620Z,3.50
2019-03-30T02:48:49.324Z,3.40
2019-03-30T02:51:18.740Z,3.30
2019-03-30T02:53:48.057Z,3.30
2019-03-30T02:56:17.455Z,3.50
2019-03-30T02:58:46.762Z,3.40
2019-03-30T03:01:16.204Z,3.40
2019-03-30T03:03:45.609Z,3.20
2019-03-30T03:06:15.493Z,3.20
2019-03-30T03:08:44.862Z,3.10
2019-03-30T03:11:14.274Z,3.10
2019-03-30T03:13:43.687Z,3.30
2019-03-30T03:16:13.169Z,3.20
2019-03-30T03:18:42.507Z,3.10
2019-03-30T03:21:11.926Z,3.00
2019-03-30T03:23:41.363Z,3.00
2019-03-30T03:26:10.692Z,3.10
2019-03-30T03:28:40.039Z,3.00
2019-03-30T03:31:09.534Z,3.00
2019-03-30T03:33:39.235Z,2.90
2019-03-30T03:36:08.911Z,2.90
2019-03-30T03:38:38.850Z,2.80
2019-03-30T03:41:08.344Z,2.70
2019-03-30T03:43:38.088Z,2.80
2019-03-30T03:46:07.458Z,2.70
2019-03-30T03:48:37.213Z,2.70
2019-03-30T03:51:24.584Z,2.70
2019-03-30T03:53:38.366Z,2.70
2019-03-30T03:56:08.348Z,2.80
2019-03-30T03:58:39.966Z,2.80
2019-03-30T04:01:09.779Z,2.70
2019-03-30T04:03:41.691Z,2.80
2019-03-30T04:06:11.565Z,2.70
2019-03-30T04:08:43.613Z,2.60
2019-03-30T04:11:14.606Z,2.50
2019-03-30T04:13:46.356Z,2.50
2019-03-30T04:16:15.705Z,2.60
2019-03-30T04:18:47.965Z,2.60
2019-03-30T04:21:17.025Z,2.60
2019-03-30T04:23:47.089Z,2.60
2019-03-30T04:26:16.406Z,2.50
2019-03-30T04:28:45.793Z,2.40
2019-03-30T04:31:15.188Z,2.30
2019-03-30T04:33:44.531Z,2.30
2019-03-30T04:36:13.863Z,2.20
2019-03-30T04:38:43.210Z,2.10
2019-03-30T04:41:12.921Z,2.00
2019-03-30T04:43:42.323Z,2.00
2019-03-30T04:46:11.712Z,2.00
2019-03-30T04:48:41.020Z,2.00
2019-03-30T04:51:10.649Z,2.00
2019-03-30T04:53:39.955Z,2.00
2019-03-30T04:56:10.045Z,2.00
2019-03-30T04:58:39.620Z,2.00
2019-03-30T05:01:09.077Z,2.00
2019-03-30T05:03:38.918Z,2.00
2019-03-30T05:06:08.351Z,2.00
2019-03-30T05:08:37.704Z,1.90
2019-03-30T05:11:07.180Z,1.90
2019-03-30T05:13:37.085Z,2.00
2019-03-30T05:16:06.491Z,2.10
2019-03-30T05:18:36.132Z,2.10
2019-03-30T05:21:05.488Z,2.10
2019-03-30T05:23:35.488Z,2.10
2019-03-30T05:26:04.948Z,2.10
2019-03-30T05:28:34.255Z,2.10
2019-03-30T05:31:03.949Z,2.10
2019-03-30T05:33:33.705Z,2.10
2019-03-30T05:36:03.126Z,2.10
2019-03-30T05:38:32.543Z,2.10
2019-03-30T05:41:02.145Z,2.20
2019-03-30T05:43:31.593Z,2.20
2019-03-30T05:46:01.037Z,2.20
2019-03-30T05:48:30.354Z,2.20
2019-03-30T05:50:59.793Z,2.20
2019-03-30T05:53:30.152Z,2.30
2019-03-30T05:55:59.790Z,2.30
2019-03-30T05:58:29.362Z,2.40
2019-03-30T06:00:58.690Z,2.40
2019-03-30T06:03:28.123Z,2.50
2019-03-30T06:05:57.521Z,2.80
2019-03-30T06:08:27.021Z,2.80
2019-03-30T06:10:56.590Z,2.80
2019-03-30T06:13:25.915Z,2.90
2019-03-30T06:15:58.474Z,3.00
2019-03-30T06:18:28.343Z,3.20
2019-03-30T06:20:57.992Z,3.30
2019-03-30T06:23:27.742Z,3.30
2019-03-30T06:25:57.082Z,3.40
2019-03-30T06:28:26.764Z,3.50
2019-03-30T06:30:56.120Z,3.70
2019-03-30T06:33:25.429Z,3.90
2019-03-30T06:35:55.077Z,4.10
2019-03-30T06:38:24.462Z,4.20
2019-03-30T06:40:53.824Z,4.30
2019-03-30T06:43:23.220Z,4.40
2019-03-30T06:45:53.073Z,4.60
2019-03-30T06:48:22.467Z,4.80
2019-03-30T06:50:51.824Z,4.90
2019-03-30T06:53:21.128Z,5.10
2019-03-30T06:55:51.126Z,5.30
2019-03-30T06:58:20.546Z,5.60
2019-03-30T07:00:51.191Z,5.90
2019-03-30T07:03:21.071Z,6.30
2019-03-30T07:05:52.231Z,6.60
2019-03-30T07:08:22.006Z,6.70
2019-03-30T07:10:51.420Z,6.90
2019-03-30T07:13:21.253Z,6.90
2019-03-30T07:15:51.154Z,7.10
2019-03-30T07:18:20.987Z,7.30
2019-03-30T07:20:50.651Z,7.50
2019-03-30T07:23:20.456Z,7.60
2019-03-30T07:25:49.974Z,7.80
2019-03-30T07:28:19.361Z,7.90
2019-03-30T07:30:48.820Z,8.10
2019-03-30T07:33:18.709Z,9.00
2019-03-30T07:35:48.206Z,11.40
2019-03-30T07:38:17.613Z,14.30
2019-03-30T07:41:06.259Z,16.60
2019-03-30T07:43:35.670Z,18.10
2019-03-30T07:46:05.109Z,19.20
2019-03-30T07:48:34.998Z,19.90
2019-03-30T07:51:04.420Z,19.80
2019-03-30T07:53:44.294Z,20.20
2019-03-30T07:56:08.740Z,20.60
2019-03-30T07:58:37.577Z,21.00
2019-03-30T08:01:07.180Z,21.30
2019-03-30T08:03:37.358Z,20.90
2019-03-30T08:06:07.168Z,21.60
2019-03-30T08:08:37.010Z,22.20
2019-03-30T08:11:06.476Z,20.90
2019-03-30T08:13:36.673Z,21.00
2019-03-30T08:16:07.046Z,22.50
2019-03-30T08:18:36.810Z,23.40
2019-03-30T08:21:06.232Z,23.40
2019-03-30T08:23:40.620Z,23.30
2019-03-30T08:26:07.291Z,23.70
2019-03-30T08:28:36.661Z,23.40
2019-03-30T08:31:06.119Z,23.70
2019-03-30T08:33:36.055Z,23.90
2019-03-30T08:36:05.944Z,24.50
2019-03-30T08:38:35.617Z,24.50
2019-03-30T08:41:04.911Z,24.40
2019-03-30T08:43:34.216Z,24.40
2019-03-30T08:46:03.885Z,24.10
2019-03-30T08:48:33.216Z,24.50
2019-03-30T08:51:02.726Z,24.00
2019-03-30T08:53:32.065Z,24.30
2019-03-30T08:56:01.708Z,24.50
2019-03-30T08:58:31.359Z,24.50
2019-03-30T09:01:00.790Z,24.60
2019-03-30T09:03:34.023Z,24.70
2019-03-30T09:06:02.501Z,24.80
2019-03-30T09:08:32.332Z,25.40
2019-03-30T09:11:02.169Z,24.70
2019-03-30T09:13:31.580Z,24.50
2019-03-30T09:16:00.984Z,23.70
2019-03-30T09:18:30.716Z,23.90
2019-03-30T09:20:59.999Z,23.60
2019-03-30T09:23:29.372Z,23.20
2019-03-30T09:25:59.172Z,21.80
2019-03-30T09:28:28.806Z,21.40
2019-03-30T09:30:58.460Z,21.10
2019-03-30T09:33:27.777Z,20.20
2019-03-30T09:35:57.104Z,19.50
2019-03-30T09:38:26.473Z,19.30
2019-03-30T09:40:55.840Z,19.50
2019-03-30T09:43:25.176Z,19.30
2019-03-30T09:45:54.831Z,19.20
2019-03-30T09:48:24.513Z,18.90
2019-03-30T09:50:54.241Z,18.40
2019-03-30T09:53:23.556Z,18.00
2019-03-30T09:55:53.165Z,17.90
2019-03-30T09:58:22.857Z,18.20
2019-03-30T10:00:52.191Z,18.40
2019-03-30T10:03:21.601Z,18.40
2019-03-30T10:05:51.347Z,18.50
2019-03-30T10:08:21.516Z,18.80
2019-03-30T10:10:50.820Z,18.90
2019-03-30T10:13:20.187Z,18.90
2019-03-30T10:15:49.684Z,18.90
2019-03-30T10:18:18.991Z,19.20
2019-03-30T10:20:48.346Z,19.40
2019-03-30T10:23:17.715Z,19.30
2019-03-30T10:25:47.023Z,19.20
2019-03-30T10:28:16.319Z,19.00
2019-03-30T10:30:46.112Z,18.90
2019-03-30T10:33:16.073Z,19.10
2019-03-30T10:35:45.671Z,19.00
2019-03-30T10:38:15.008Z,19.10
2019-03-30T10:40:44.500Z,19.50
2019-03-30T10:43:13.897Z,19.60
2019-03-30T10:45:43.203Z,19.70
2019-03-30T10:48:12.614Z,19.80
2019-03-30T10:50:41.926Z,20.00
2019-03-30T10:53:11.550Z,19.90
2019-03-30T10:55:41.508Z,19.60
2019-03-30T10:58:10.833Z,19.60
2019-03-30T11:00:41.455Z,19.70
2019-03-30T11:03:11.239Z,19.60
2019-03-30T11:05:40.685Z,19.30
2019-03-30T11:08:10.100Z,19.40
2019-03-30T11:10:39.435Z,19.60
2019-03-30T11:13:08.824Z,19.70
2019-03-30T11:15:38.259Z,19.70
2019-03-30T11:18:07.936Z,19.80
2019-03-30T11:20:37.489Z,19.90
2019-03-30T11:23:07.222Z,20.00
2019-03-30T11:25:36.660Z,20.00
2019-03-30T11:28:06.315Z,20.00
2019-03-30T11:30:36.051Z,20.30
2019-03-30T11:33:05.626Z,20.30
2019-03-30T11:35:34.998Z,20.00
2019-03-30T11:38:04.411Z,20.00
2019-03-30T11:40:34.850Z,20.10
2019-03-30T11:43:04.859Z,20.20
2019-03-30T11:45:34.171Z,20.50
2019-03-30T11:48:03.797Z,20.60
2019-03-30T11:50:33.314Z,20.30
2019-03-30T11:53:02.628Z,20.10
2019-03-30T11:55:32.205Z,20.10
2019-03-30T11:58:01.594Z,20.10
2019-03-30T12:00:30.987Z,19.90
2019-03-30T12:03:00.376Z,19.90
2019-03-30T12:05:30.071Z,19.80
2019-03-30T12:07:59.560Z,19.70
2019-03-30T12:10:29.174Z,19.40
2019-03-30T12:12:58.947Z,19.30
2019-03-30T12:15:28.675Z,19.60
2019-03-30T12:17:58.271Z,19.90
2019-03-30T12:20:27.877Z,20.00
2019-03-30T12:22:57.180Z,20.00
2019-03-30T12:25:35.572Z,20.10
2019-03-30T12:27:57.991Z,20.20
2019-03-30T12:30:27.595Z,20.00
2019-03-30T12:32:57.323Z,19.90
2019-03-30T12:35:26.679Z,19.90
2019-03-30T12:37:56.103Z,19.90
2019-03-30T12:40:25.628Z,20.00
2019-03-30T12:42:55.549Z,20.00
2019-03-30T12:45:24.947Z,20.00
2019-03-30T12:47:54.724Z,20.10
2019-03-30T12:50:24.466Z,20.00
2019-03-30T12:52:54.187Z,20.00
2019-03-30T12:55:23.589Z,20.00
2019-03-30T12:57:53.358Z,19.90
2019-03-30T13:00:22.772Z,19.80
2019-03-30T13:02:52.076Z,19.80
2019-03-30T13:05:21.944Z,19.80
2019-03-30T13:07:51.440Z,19.80
2019-03-30T13:10:20.802Z,19.80
2019-03-30T13:12:50.095Z,19.80
2019-03-30T13:15:19.663Z,19.70
2019-03-30T13:17:49.276Z,19.70
2019-03-30T13:20:18.699Z,19.70
2019-03-30T13:22:48.256Z,19.80
2019-03-30T13:25:17.647Z,19.80
2019-03-30T13:27:47.001Z,19.70
2019-03-30T13:30:17.346Z,19.80
2019-03-30T13:32:46.767Z,19.80
2019-03-30T13:35:16.230Z,19.90
2019-03-30T13:37:46.652Z,20.00
2019-03-30T13:40:16.368Z,20.10
2019-03-30T13:42:45.974Z,20.00
2019-03-30T13:45:15.480Z,19.90
2019-03-30T13:47:44.972Z,19.80
2019-03-30T13:50:14.984Z,19.90
2019-03-30T13:52:44.784Z,20.00
2019-03-30T13:55:14.839Z,20.00
2019-03-30T13:57:44.345Z,20.00
2019-03-30T14:00:14.727Z,20.00
2019-03-30T14:02:44.805Z,20.00
2019-03-30T14:05:14.724Z,20.10
2019-03-30T14:07:44.210Z,20.00
2019-03-30T14:10:13.831Z,20.00
2019-03-30T14:12:43.604Z,20.00
2019-03-30T14:15:13.097Z,20.10
2019-03-30T14:17:42.445Z,20.10
2019-03-30T14:20:12.072Z,20.10
2019-03-30T14:22:41.380Z,20.10
2019-03-30T14:25:11.123Z,20.10
2019-03-30T14:27:40.442Z,20.20
2019-03-30T14:30:10.789Z,20.10
2019-03-30T14:32:40.098Z,20.00
2019-03-30T14:35:09.497Z,20.00
2019-03-30T14:37:39.346Z,20.00
2019-03-30T14:40:09.119Z,20.00
2019-03-30T14:42:38.471Z,20.00
2019-03-30T14:45:08.689Z,20.10
2019-03-30T14:47:38.024Z,20.10
2019-03-30T14:50:09.827Z,20.10
2019-03-30T14:52:39.307Z,20.10
2019-03-30T14:55:09.171Z,20.10
2019-03-30T14:57:38.575Z,20.00
2019-03-30T15:00:08.637Z,20.00
2019-03-30T15:02:38.287Z,20.00
2019-03-30T15:05:09.619Z,20.00
2019-03-30T15:07:39.067Z,19.90
2019-03-30T15:10:09.313Z,19.90
2019-03-30T15:12:39.075Z,19.90
2019-03-30T15:15:10.109Z,19.90
2019-03-30T15:17:40.942Z,19.90
2019-03-30T15:20:11.280Z,19.90
2019-03-30T15:22:40.618Z,20.00
2019-03-30T15:25:10.558Z,20.00
2019-03-30T15:27:40.251Z,19.80
2019-03-30T15:30:10.510Z,19.80
2019-03-30T15:32:39.820Z,19.80
2019-03-30T15:35:09.520Z,19.80
2019-03-30T15:37:39.671Z,19.80
2019-03-30T15:40:09.747Z,19.80
2019-03-30T15:42:40.437Z,19.70
2019-03-30T15:45:10.319Z,19.60
2019-03-30T15:47:39.792Z,19.60
2019-03-30T15:50:09.829Z,19.50
2019-03-30T15:52:39.201Z,19.50
2019-03-30T15:55:09.008Z,19.40
2019-03-30T15:57:38.596Z,19.40
2019-03-30T16:00:10.372Z,19.40
2019-03-30T16:02:39.764Z,19.30
2019-03-30T16:05:09.381Z,19.30
2019-03-30T16:07:39.180Z,19.40
2019-03-30T16:10:08.665Z,19.30
2019-03-30T16:12:38.036Z,19.20
2019-03-30T16:15:07.632Z,19.10
2019-03-30T16:17:36.943Z,19.10
2019-03-30T16:20:07.751Z,19.20
2019-03-30T16:22:37.432Z,19.20
2019-03-30T16:25:07.416Z,19.00
2019-03-30T16:27:39.223Z,19.00
2019-03-30T16:30:08.920Z,18.90
2019-03-30T16:32:38.372Z,18.80
2019-03-30T16:35:07.934Z,18.60
2019-03-30T16:37:37.290Z,18.50
2019-03-30T16:40:07.472Z,18.40
2019-03-30T16:42:37.125Z,18.30
2019-03-30T16:45:06.872Z,18.30
2019-03-30T16:47:36.243Z,18.20
2019-03-30T16:50:07.619Z,18.20
2019-03-30T16:52:40.809Z,18.30
2019-03-30T16:55:08.527Z,18.20
2019-03-30T16:57:43.778Z,18.10
2019-03-30T17:00:09.558Z,18.00
2019-03-30T17:02:38.906Z,18.00
2019-03-30T17:05:08.682Z,17.90
2019-03-30T17:07:38.031Z,17.70
2019-03-30T17:10:07.953Z,17.50
2019-03-30T17:12:37.406Z,17.40
2019-03-30T17:15:07.483Z,17.30
2019-03-30T17:17:37.118Z,17.20
2019-03-30T17:20:07.882Z,17.10
2019-03-30T17:22:37.271Z,17.00
2019-03-30T17:25:07.499Z,16.90
2019-03-30T17:27:37.243Z,16.80
2019-03-30T17:30:07.704Z,16.70
2019-03-30T17:32:37.206Z,16.60
2019-03-30T17:35:06.665Z,16.50
2019-03-30T17:37:36.243Z,16.40
2019-03-30T17:40:07.140Z,16.30
2019-03-30T17:42:38.730Z,16.20
2019-03-30T17:45:08.760Z,16.00
2019-03-30T17:47:38.158Z,15.80
2019-03-30T17:50:08.362Z,15.80
2019-03-30T17:52:37.831Z,15.70
2019-03-30T17:55:07.875Z,15.60
2019-03-30T17:57:37.270Z,15.50
2019-03-30T18:00:09.356Z,15.40
2019-03-30T18:02:39.219Z,15.30
2019-03-30T18:05:09.151Z,15.20
2019-03-30T18:07:38.882Z,15.10
2019-03-30T18:10:08.509Z,15.10
2019-03-30T18:12:37.795Z,14.90
2019-03-30T18:15:08.153Z,14.70
2019-03-30T18:17:38.053Z,14.50
2019-03-30T18:20:08.543Z,14.50
2019-03-30T18:22:38.099Z,14.50
2019-03-30T18:25:07.655Z,14.40
2019-03-30T18:27:37.227Z,14.30
2019-03-30T18:30:06.940Z,14.30
2019-03-30T18:32:36.439Z,14.20
2019-03-30T18:35:06.511Z,14.20
2019-03-30T18:37:36.330Z,14.10
2019-03-30T18:40:07.282Z,14.00
2019-03-30T18:42:37.059Z,14.00
2019-03-30T18:45:08.566Z,13.90
2019-03-30T18:47:37.980Z,13.80
2019-03-30T18:50:07.559Z,13.70
2019-03-30T18:52:37.454Z,13.70
2019-03-30T18:55:06.936Z,13.60
2019-03-30T18:57:36.911Z,13.50
2019-03-30T19:00:06.940Z,13.40
2019-03-30T19:02:36.405Z,13.30
2019-03-30T19:05:06.739Z,13.20
2019-03-30T19:07:36.303Z,13.00
2019-03-30T19:10:06.152Z,13.00
2019-03-30T19:12:35.884Z,13.00
2019-03-30T19:15:06.397Z,12.90
2019-03-30T19:17:36.239Z,12.80
2019-03-30T19:20:06.174Z,12.70
2019-03-30T19:22:35.580Z,12.60
2019-03-30T19:25:05.829Z,12.60
2019-03-30T19:27:35.597Z,12.50
2019-03-30T19:30:05.731Z,12.40
2019-03-30T19:32:35.085Z,12.30
2019-03-30T19:35:04.711Z,12.20
2019-03-30T19:37:34.063Z,12.20
2019-03-30T19:40:03.956Z,12.10
2019-03-30T19:42:33.465Z,12.10
2019-03-30T19:45:04.301Z,12.00
2019-03-30T19:47:33.607Z,11.90
2019-03-30T19:50:03.077Z,11.70
2019-03-30T19:52:39.840Z,11.60
2019-03-30T19:55:03.704Z,11.60
2019-03-30T19:57:33.016Z,11.50
2019-03-30T20:00:02.332Z,11.40
2019-03-30T20:02:31.690Z,11.40
2019-03-30T20:05:01.140Z,11.40
2019-03-30T20:07:30.636Z,11.40
2019-03-30T20:10:00.003Z,11.30
2019-03-30T20:12:33.356Z,11.30
2019-03-30T20:15:02.749Z,11.30
2019-03-30T20:17:32.824Z,11.20
2019-03-30T20:20:03.255Z,11.10
2019-03-30T20:22:32.548Z,11.10
2019-03-30T20:25:01.865Z,10.90
2019-03-30T20:27:31.321Z,10.90
2019-03-30T20:30:01.464Z,10.90
2019-03-30T20:32:31.141Z,10.90
2019-03-30T20:35:01.888Z,10.80
2019-03-30T20:37:32.021Z,10.70
2019-03-30T20:40:01.388Z,10.60
2019-03-30T20:42:31.227Z,10.50
2019-03-30T20:45:00.540Z,10.40
2019-03-30T20:47:29.866Z,10.40
2019-03-30T20:49:59.650Z,10.30
2019-03-30T20:52:29.376Z,10.20
2019-03-30T20:54:58.761Z,10.10
2019-03-30T20:57:28.060Z,10.10
2019-03-30T20:59:57.504Z,10.10
2019-03-30T21:02:27.877Z,10.00
2019-03-30T21:04:57.500Z,9.90
2019-03-30T21:07:26.861Z,9.90
2019-03-30T21:09:56.350Z,9.90
2019-03-30T21:12:25.792Z,9.80
2019-03-30T21:14:55.732Z,9.80
2019-03-30T21:17:25.056Z,9.60
2019-03-30T21:19:54.493Z,9.60
2019-03-30T21:22:23.825Z,9.50
2019-03-30T21:24:53.822Z,9.50
2019-03-30T21:27:23.873Z,9.40
2019-03-30T21:29:54.785Z,9.40
2019-03-30T21:32:24.532Z,9.40
2019-03-30T21:34:54.138Z,9.30
2019-03-30T21:37:23.430Z,9.30
2019-03-30T21:39:52.847Z,9.20
2019-03-30T21:42:22.248Z,9.10
2019-03-30T21:44:51.628Z,9.10
2019-03-30T21:47:20.964Z,9.00
2019-03-30T21:49:50.992Z,8.90
2019-03-30T21:52:20.595Z,8.90
2019-03-30T21:54:50.043Z,8.80
2019-03-30T21:57:19.663Z,8.80
2019-03-30T21:59:48.956Z,8.70
2019-03-30T22:02:19.175Z,8.70
2019-03-30T22:04:48.560Z,8.70
2019-03-30T22:07:18.524Z,8.70
2019-03-30T22:09:48.441Z,8.60
2019-03-30T22:12:18.086Z,8.60
2019-03-30T22:14:47.464Z,8.60
2019-03-30T22:17:16.800Z,8.50
2019-03-30T22:19:46.096Z,8.50
2019-03-30T22:22:15.495Z,8.30
2019-03-30T22:24:45.356Z,8.20
2019-03-30T22:27:14.769Z,8.10
2019-03-30T22:29:44.107Z,8.00
2019-03-30T22:32:14.349Z,7.90
2019-03-30T22:34:44.137Z,7.90
2019-03-30T22:37:13.829Z,7.90
2019-03-30T22:39:43.433Z,7.90
2019-03-30T22:42:12.755Z,7.90
2019-03-30T22:44:42.111Z,7.80
2019-03-30T22:47:11.731Z,7.70
2019-03-30T22:49:41.349Z,7.70
2019-03-30T22:52:11.014Z,7.60
2019-03-30T22:54:40.736Z,7.60
2019-03-30T22:57:10.103Z,7.50
2019-03-30T22:59:39.433Z,7.40
2019-03-30T23:02:09.511Z,7.30
2019-03-30T23:04:39.157Z,7.30
2019-03-30T23:07:08.563Z,7.20
2019-03-30T23:09:37.936Z,7.20
2019-03-30T23:12:07.256Z,7.10
2019-03-30T23:14:36.716Z,7.00
2019-03-30T23:17:06.175Z,7.00
2019-03-30T23:19:35.568Z,7.10
2019-03-30T23:22:04.936Z,7.00
2019-03-30T23:24:34.277Z,6.90
2019-03-30T23:27:03.575Z,6.80
2019-03-30T23:29:33.211Z,6.70
2019-03-30T23:32:02.514Z,6.60
2019-03-30T23:34:32.148Z,6.50
2019-03-30T23:37:01.760Z,6.50
2019-03-30T23:39:31.449Z,6.40
2019-03-30T23:42:01.032Z,6.40
2019-03-30T23:44:30.435Z,6.40
2019-03-30T23:46:59.732Z,6.40
2019-03-30T23:49:32.711Z,6.60
2019-03-30T23:52:02.544Z,6.70
2019-03-30T23:54:31.923Z,6.70
2019-03-30T23:57:01.318Z,6.70
2019-03-30T23:59:30.608Z,6.60
